Time;durP1;ratioP1;P1;durP2;ratioP2;P2;SDS_P1;SDS_P2;PMS_P1;PMS_P2;Temp;Humidity;BMP_temperature;BMP_pressure;BME280_temperature;BME280_humidity;BME280_pressure;Samples;Min_cycle;Max_cycle;Signal;HPM_P1;HPM_P2
2022/04/10 00:01:53;;;;;;;15.88;2.85;;;;;;;;;;6138072;23;20355;-90
2022/04/10 00:04:19;;;;;;;13.75;3.33;;;;;;;;;;6137318;23;20017;-91
2022/04/10 00:06:45;;;;;;;8.35;2.90;;;;;;;;;;6136420;23;20044;-91
2022/04/10 00:09:13;;;;;;;13.30;3.03;;;;;;;;;;6135795;23;20354;-87
2022/04/10 00:11:39;;;;;;;9.98;3.78;;;;;;;;;;6136222;23;20074;-89
2022/04/10 00:14:05;;;;;;;13.93;3.75;;;;;;;;;;6136518;23;20057;-87
2022/04/10 00:16:32;;;;;;;12.95;3.65;;;;;;;;;;6136822;23;20342;-86
2022/04/10 00:19:04;;;;;;;17.27;2.97;;;;;;;;;;6136091;23;20426;-89
2022/04/10 00:21:30;;;;;;;8.77;3.20;;;;;;;;;;6161072;23;20013;-88
2022/04/10 00:23:56;;;;;;;7.47;3.28;;;;;;;;;;6135905;23;20023;-86
2022/04/10 00:26:22;;;;;;;14.45;2.88;;;;;;;;;;6135920;23;20088;-87
2022/04/10 00:28:48;;;;;;;12.15;3.33;;;;;;;;;;6136300;23;20354;-88
2022/04/10 00:31:15;;;;;;;7.90;2.97;;;;;;;;;;6159838;23;20072;-90
2022/04/10 00:33:42;;;;;;;11.25;2.88;;;;;;;;;;6135804;23;20056;-89
2022/04/10 00:36:08;;;;;;;10.00;2.60;;;;;;;;;;6161423;23;20061;-88
2022/04/10 00:38:34;;;;;;;10.63;3.08;;;;;;;;;;6136024;23;20469;-88
2022/04/10 00:41:00;;;;;;;13.57;3.08;;;;;;;;;;6160340;23;20104;-87
2022/04/10 00:43:32;;;;;;;8.98;2.33;;;;;;;;;;6136988;23;20095;-89
2022/04/10 00:45:58;;;;;;;14.43;5.03;;;;;;;;;;6137056;23;20120;-89
2022/04/10 00:48:24;;;;;;;13.35;3.28;;;;;;;;;;6136645;23;20450;-87
2022/04/10 00:53:36;;;;;;;6.82;2.78;;;;;;;;;;6161676;23;20028;-87
2022/04/10 00:56:02;;;;;;;14.63;2.58;;;;;;;;;;6136627;23;20020;-86
2022/04/10 00:58:28;;;;;;;18.95;3.88;;;;;;;;;;6160738;23;20627;-89
2022/04/10 01:00:54;;;;;;;8.15;2.60;;;;;;;;;;6137543;23;20099;-88
2022/04/10 01:03:20;;;;;;;20.50;2.83;;;;;;;;;;6136475;23;20008;-89
2022/04/10 01:05:47;;;;;;;18.33;2.92;;;;;;;;;;6137009;23;20501;-89
2022/04/10 01:08:13;;;;;;;12.88;2.92;;;;;;;;;;6136747;23;20024;-88
2022/04/10 01:10:39;;;;;;;11.73;2.83;;;;;;;;;;6135443;23;20028;-87
2022/04/10 01:13:05;;;;;;;18.55;3.92;;;;;;;;;;6135406;23;20017;-87
2022/04/10 01:15:31;;;;;;;10.43;2.83;;;;;;;;;;6135755;23;20048;-87
2022/04/10 01:17:57;;;;;;;9.38;3.53;;;;;;;;;;6134524;23;20017;-88
2022/04/10 01:20:25;;;;;;;8.40;2.35;;;;;;;;;;6160155;23;20021;-87
2022/04/10 01:22:51;;;;;;;19.23;3.13;;;;;;;;;;6160421;23;20036;-85
2022/04/10 01:25:17;;;;;;;10.68;2.95;;;;;;;;;;6136487;23;20109;-88
2022/04/10 01:27:43;;;;;;;10.75;2.42;;;;;;;;;;6160146;23;20021;-89
2022/04/10 01:30:10;;;;;;;11.10;3.13;;;;;;;;;;6186537;23;20095;-85
2022/04/10 01:32:36;;;;;;;14.63;3.08;;;;;;;;;;6160146;23;20021;-85
2022/04/10 01:35:03;;;;;;;14.77;3.30;;;;;;;;;;6160321;23;20028;-88
2022/04/10 01:37:31;;;;;;;16.20;3.92;;;;;;;;;;6185999;23;20080;-85
2022/04/10 01:39:57;;;;;;;12.50;3.58;;;;;;;;;;6185801;23;20047;-88
2022/04/10 01:42:23;;;;;;;13.30;4.72;;;;;;;;;;6135455;23;20024;-89
2022/04/10 01:44:49;;;;;;;22.33;3.80;;;;;;;;;;6135474;23;20020;-92
2022/04/10 01:47:15;;;;;;;9.23;3.45;;;;;;;;;;6159988;23;20459;-86
2022/04/10 01:49:41;;;;;;;6.85;2.95;;;;;;;;;;6186242;23;20060;-85
2022/04/10 01:52:08;;;;;;;9.43;3.67;;;;;;;;;;6187075;23;20017;-88
2022/04/10 01:54:34;;;;;;;10.00;2.90;;;;;;;;;;6160171;23;20099;-85
2022/04/10 01:57:00;;;;;;;7.97;2.88;;;;;;;;;;6158934;23;20017;-91
2022/04/10 01:59:29;;;;;;;11.60;2.50;;;;;;;;;;6135412;23;20020;-91
2022/04/10 02:01:56;;;;;;;5.40;2.30;;;;;;;;;;6135409;23;20447;-87
2022/04/10 02:04:22;;;;;;;5.45;2.10;;;;;;;;;;6135401;23;20044;-90
2022/04/10 02:06:48;;;;;;;15.05;3.47;;;;;;;;;;6159923;23;20024;-85
2022/04/10 02:09:14;;;;;;;7.60;2.50;;;;;;;;;;6159744;23;20052;-90
2022/04/10 02:11:40;;;;;;;8.77;2.47;;;;;;;;;;6134684;23;20029;-89
2022/04/10 02:14:06;;;;;;;18.58;3.92;;;;;;;;;;6135433;23;20021;-85
2022/04/10 02:16:32;;;;;;;12.55;2.33;;;;;;;;;;6134886;23;20013;-88
2022/04/10 02:18:58;;;;;;;12.07;2.63;;;;;;;;;;6134873;23;20017;-88
2022/04/10 02:21:24;;;;;;;12.38;3.30;;;;;;;;;;6135520;23;20017;-88
2022/04/10 02:23:50;;;;;;;8.98;2.75;;;;;;;;;;6160284;23;20265;-89
2022/04/10 02:26:16;;;;;;;5.35;2.33;;;;;;;;;;6135254;23;20357;-89
2022/04/10 02:28:42;;;;;;;3.13;2.22;;;;;;;;;;6135913;23;20031;-86
2022/04/10 02:31:09;;;;;;;16.73;2.55;;;;;;;;;;6136004;23;20017;-89
2022/04/10 02:33:35;;;;;;;9.85;2.50;;;;;;;;;;6136238;23;20095;-88
2022/04/10 02:36:01;;;;;;;10.25;2.90;;;;;;;;;;6135743;23;20071;-84
2022/04/10 02:38:27;;;;;;;11.73;2.50;;;;;;;;;;6136101;23;20478;-85
2022/04/10 02:40:53;;;;;;;7.15;2.55;;;;;;;;;;6160917;23;20021;-88
2022/04/10 02:43:19;;;;;;;15.85;3.80;;;;;;;;;;6136591;23;20019;-87
2022/04/10 02:45:46;;;;;;;7.95;2.10;;;;;;;;;;6136985;23;20056;-89
2022/04/10 02:48:12;;;;;;;6.15;2.08;;;;;;;;;;6161161;23;20017;-86
2022/04/10 02:50:38;;;;;;;9.73;2.53;;;;;;;;;;6135729;23;20043;-87
2022/04/10 02:53:04;;;;;;;4.82;2.65;;;;;;;;;;6136200;23;20056;-87
2022/04/10 02:55:30;;;;;;;2.35;1.50;;;;;;;;;;6136800;23;20058;-87
2022/04/10 02:57:56;;;;;;;4.15;1.95;;;;;;;;;;6136193;23;20017;-88
2022/04/10 03:00:22;;;;;;;8.68;2.13;;;;;;;;;;6161597;23;20013;-89
2022/04/10 03:02:49;;;;;;;8.05;1.88;;;;;;;;;;6161948;23;20021;-89
2022/04/10 03:05:15;;;;;;;5.30;1.73;;;;;;;;;;6137308;23;20084;-89
2022/04/10 03:07:41;;;;;;;10.80;2.17;;;;;;;;;;6161632;23;20481;-90
2022/04/10 03:10:07;;;;;;;6.88;1.60;;;;;;;;;;6137430;23;20020;-90
2022/04/10 03:12:33;;;;;;;4.97;1.67;;;;;;;;;;6161887;23;20025;-85
2022/04/10 03:14:59;;;;;;;8.98;1.73;;;;;;;;;;6161591;23;20072;-90
2022/04/10 03:17:25;;;;;;;6.45;2.03;;;;;;;;;;6160286;23;20350;-90
2022/04/10 03:19:51;;;;;;;1.83;1.10;;;;;;;;;;6161186;23;20519;-91
2022/04/10 03:22:18;;;;;;;5.32;1.48;;;;;;;;;;6136663;23;20442;-87
2022/04/10 03:24:44;;;;;;;3.55;1.35;;;;;;;;;;6136492;23;20020;-90
2022/04/10 03:27:10;;;;;;;7.03;3.95;;;;;;;;;;6161002;23;20013;-86
2022/04/10 03:29:36;;;;;;;4.55;1.55;;;;;;;;;;6136918;23;20005;-86
2022/04/10 03:32:02;;;;;;;4.18;1.70;;;;;;;;;;6136773;23;20014;-92
2022/04/10 03:34:28;;;;;;;12.70;1.65;;;;;;;;;;6161441;23;20021;-86
2022/04/10 03:36:55;;;;;;;9.80;2.78;;;;;;;;;;6136096;23;20119;-88
2022/04/10 03:39:21;;;;;;;9.20;1.85;;;;;;;;;;6136988;23;20100;-84
2022/04/10 03:41:47;;;;;;;10.82;1.90;;;;;;;;;;6161532;23;20021;-85
2022/04/10 03:44:13;;;;;;;9.18;1.55;;;;;;;;;;6161212;23;20362;-89
2022/04/10 03:46:39;;;;;;;11.43;1.33;;;;;;;;;;6161943;23;20021;-86
2022/04/10 03:49:07;;;;;;;2.50;1.20;;;;;;;;;;6137051;23;20048;-85
2022/04/10 03:51:33;;;;;;;1.33;0.98;;;;;;;;;;6161903;23;20017;-87
2022/04/10 03:53:59;;;;;;;1.73;1.00;;;;;;;;;;6136031;23;20020;-92
2022/04/10 03:56:25;;;;;;;7.72;1.70;;;;;;;;;;6161777;23;20021;-91
2022/04/10 03:58:51;;;;;;;2.50;1.10;;;;;;;;;;6161896;23;20029;-88
2022/04/10 04:01:17;;;;;;;7.18;1.63;;;;;;;;;;6160611;23;20017;-88
2022/04/10 04:03:43;;;;;;;3.03;1.33;;;;;;;;;;6160721;23;20044;-88
2022/04/10 04:06:10;;;;;;;3.20;1.60;;;;;;;;;;6161065;23;20024;-90
2022/04/10 04:08:36;;;;;;;3.65;2.00;;;;;;;;;;6160787;23;20353;-88
2022/04/10 04:11:02;;;;;;;3.67;1.60;;;;;;;;;;6160866;23;20335;-89
2022/04/10 04:13:28;;;;;;;5.43;1.50;;;;;;;;;;6160297;23;20032;-88
2022/04/10 04:15:54;;;;;;;4.40;1.55;;;;;;;;;;6161143;23;20063;-87
2022/04/10 04:18:20;;;;;;;4.40;1.98;;;;;;;;;;6160881;23;20028;-90
2022/04/10 04:20:46;;;;;;;3.72;1.33;;;;;;;;;;6161136;23;20346;-90
2022/04/10 04:23:14;;;;;;;16.45;1.85;;;;;;;;;;6136536;23;20104;-88
2022/04/10 04:25:40;;;;;;;7.65;2.08;;;;;;;;;;6161201;23;20027;-89
2022/04/10 04:28:06;;;;;;;8.43;2.17;;;;;;;;;;6187493;23;20021;-88
2022/04/10 04:30:32;;;;;;;11.75;1.73;;;;;;;;;;6187418;23;20017;-87
2022/04/10 04:32:58;;;;;;;6.28;1.85;;;;;;;;;;6160338;23;20161;-89
2022/04/10 04:35:24;;;;;;;8.70;1.80;;;;;;;;;;6160883;23;20346;-88
2022/04/10 04:37:50;;;;;;;6.68;2.53;;;;;;;;;;6160636;23;20045;-88
2022/04/10 04:40:16;;;;;;;7.03;1.60;;;;;;;;;;6160078;23;20454;-89
2022/04/10 04:42:42;;;;;;;10.27;2.80;;;;;;;;;;6160737;23;20024;-88
2022/04/10 04:45:09;;;;;;;6.85;1.80;;;;;;;;;;6160859;23;20028;-86
2022/04/10 04:47:36;;;;;;;8.68;2.45;;;;;;;;;;6186831;23;20056;-88
2022/04/10 04:50:02;;;;;;;9.40;2.42;;;;;;;;;;6196219;23;20024;-87
2022/04/10 04:52:28;;;;;;;9.02;1.95;;;;;;;;;;6169180;23;20016;-88
2022/04/10 04:54:54;;;;;;;4.68;1.75;;;;;;;;;;6144789;23;20047;-90
2022/04/10 04:57:20;;;;;;;7.10;2.10;;;;;;;;;;6200542;23;20021;-89
2022/04/10 04:59:46;;;;;;;10.10;2.63;;;;;;;;;;6189600;23;20024;-89
2022/04/10 05:02:12;;;;;;;13.00;1.95;;;;;;;;;;6162340;23;20075;-89
2022/04/10 05:04:38;;;;;;;2.70;1.90;;;;;;;;;;6189061;23;20013;-90
2022/04/10 05:07:04;;;;;;;4.40;1.60;;;;;;;;;;6162157;23;20013;-90
2022/04/10 05:09:30;;;;;;;5.65;1.77;;;;;;;;;;6188106;23;20017;-89
2022/04/10 05:11:56;;;;;;;6.75;2.20;;;;;;;;;;6186848;23;20044;-92
2022/04/10 05:14:22;;;;;;;10.40;2.22;;;;;;;;;;6188697;23;20026;-91
2022/04/10 05:16:48;;;;;;;8.65;1.92;;;;;;;;;;6162684;23;20024;-93
2022/04/10 05:19:14;;;;;;;5.88;2.47;;;;;;;;;;6141392;23;20014;-91
2022/04/10 05:21:40;;;;;;;11.02;2.83;;;;;;;;;;6188927;23;20092;-90
2022/04/10 05:24:07;;;;;;;4.85;3.00;;;;;;;;;;6188470;23;20063;-86
2022/04/10 05:26:33;;;;;;;4.15;1.92;;;;;;;;;;6137708;23;20047;-90
2022/04/10 05:28:59;;;;;;;9.32;1.77;;;;;;;;;;6136758;23;20390;-91
2022/04/10 05:31:25;;;;;;;11.15;2.08;;;;;;;;;;6161645;23;20024;-90
2022/04/10 05:33:51;;;;;;;8.18;2.20;;;;;;;;;;6187786;23;20021;-88
2022/04/10 05:36:18;;;;;;;8.27;2.53;;;;;;;;;;6136605;23;20019;-88
2022/04/10 05:38:45;;;;;;;4.22;2.22;;;;;;;;;;6187505;23;20039;-89
2022/04/10 05:41:12;;;;;;;13.70;2.80;;;;;;;;;;6160580;23;20056;-91
2022/04/10 05:43:38;;;;;;;6.43;2.25;;;;;;;;;;6161684;23;20534;-91
2022/04/10 05:46:04;;;;;;;3.63;1.70;;;;;;;;;;6187674;23;20064;-89
2022/04/10 05:48:31;;;;;;;6.38;2.35;;;;;;;;;;6160140;23;20053;-90
2022/04/10 05:50:57;;;;;;;10.13;2.42;;;;;;;;;;6135714;23;20017;-92
2022/04/10 05:53:27;;;;;;;7.25;2.92;;;;;;;;;;6159955;23;20021;-90
2022/04/10 05:55:53;;;;;;;7.53;2.42;;;;;;;;;;6159887;23;20068;-87
2022/04/10 05:58:19;;;;;;;9.82;1.77;;;;;;;;;;6159965;23;20013;-90
2022/04/10 06:00:45;;;;;;;4.20;2.00;;;;;;;;;;6135940;23;20159;-95
2022/04/10 06:03:12;;;;;;;6.97;2.05;;;;;;;;;;6160062;23;20355;-87
2022/04/10 06:05:38;;;;;;;3.80;1.95;;;;;;;;;;6135377;23;20025;-89
2022/04/10 06:08:04;;;;;;;5.80;2.47;;;;;;;;;;6134981;23;20029;-89
2022/04/10 06:10:30;;;;;;;6.63;3.25;;;;;;;;;;6160282;23;20048;-91
2022/04/10 06:13:06;;;;;;;6.13;2.58;;;;;;;;;;6159434;23;20355;-93
2022/04/10 06:15:32;;;;;;;9.07;2.00;;;;;;;;;;6160530;23;20017;-93
2022/04/10 06:17:58;;;;;;;7.00;2.00;;;;;;;;;;6135536;23;20013;-88
2022/04/10 06:20:24;;;;;;;9.18;2.00;;;;;;;;;;6159856;23;20013;-92
2022/04/10 06:22:50;;;;;;;15.02;2.85;;;;;;;;;;6136114;23;20450;-93
2022/04/10 06:25:16;;;;;;;7.93;1.58;;;;;;;;;;6135792;23;20024;-92
2022/04/10 06:27:42;;;;;;;7.45;2.35;;;;;;;;;;6158215;23;20025;-88
2022/04/10 06:30:11;;;;;;;2.83;1.55;;;;;;;;;;6134934;23;20014;-89
2022/04/10 06:32:44;;;;;;;12.20;2.13;;;;;;;;;;6136211;23;20100;-88
2022/04/10 06:35:10;;;;;;;5.47;2.08;;;;;;;;;;6135940;23;20101;-90
2022/04/10 06:37:38;;;;;;;6.35;3.38;;;;;;;;;;6137040;23;20048;-93
2022/04/10 06:40:05;;;;;;;5.72;1.95;;;;;;;;;;6135956;23;20103;-89
2022/04/10 06:42:33;;;;;;;7.55;2.13;;;;;;;;;;6136258;23;20100;-90
2022/04/10 06:44:59;;;;;;;9.02;2.28;;;;;;;;;;6135013;23;20021;-90
2022/04/10 06:47:27;;;;;;;3.65;1.88;;;;;;;;;;6134931;23;20017;-89
2022/04/10 06:49:56;;;;;;;8.30;2.08;;;;;;;;;;6135508;23;20021;-86
2022/04/10 06:52:24;;;;;;;8.15;2.13;;;;;;;;;;6158870;23;20016;-86
2022/04/10 06:54:50;;;;;;;10.02;3.25;;;;;;;;;;6135130;23;20024;-86
2022/04/10 06:57:16;;;;;;;8.10;2.33;;;;;;;;;;6134987;23;20017;-86
2022/04/10 06:59:42;;;;;;;10.57;2.05;;;;;;;;;;6134301;23;20021;-89
2022/04/10 07:02:09;;;;;;;9.98;2.22;;;;;;;;;;6135353;23;20051;-91
2022/04/10 07:04:35;;;;;;;2.88;1.85;;;;;;;;;;6161298;23;20147;-88
2022/04/10 07:07:01;;;;;;;7.57;2.22;;;;;;;;;;6136036;23;20021;-89
2022/04/10 07:09:27;;;;;;;10.68;2.08;;;;;;;;;;6160614;23;20055;-90
2022/04/10 07:11:53;;;;;;;8.45;2.10;;;;;;;;;;6134185;23;20021;-89
2022/04/10 07:14:19;;;;;;;6.63;2.53;;;;;;;;;;6134518;23;20017;-89
2022/04/10 07:16:45;;;;;;;10.52;2.20;;;;;;;;;;6136094;23;20024;-90
2022/04/10 07:19:11;;;;;;;3.90;2.00;;;;;;;;;;6135945;23;20025;-88
2022/04/10 07:24:22;;;;;;;10.48;2.33;;;;;;;;;;6162371;23;20017;-86
2022/04/10 07:26:52;;;;;;;5.75;1.73;;;;;;;;;;6162149;23;20013;-92
2022/04/10 07:29:18;;;;;;;9.38;1.65;;;;;;;;;;6161821;23;20031;-91
2022/04/10 07:31:44;;;;;;;3.95;1.38;;;;;;;;;;6137913;23;20021;-91
2022/04/10 07:34:10;;;;;;;7.10;1.80;;;;;;;;;;6137483;23;20020;-91
2022/04/10 07:36:37;;;;;;;8.55;2.38;;;;;;;;;;6188778;23;20013;-89
2022/04/10 07:39:03;;;;;;;7.20;2.00;;;;;;;;;;6161691;23;20059;-87
2022/04/10 07:41:29;;;;;;;8.15;2.70;;;;;;;;;;6161359;23;20024;-89
2022/04/10 07:43:55;;;;;;;4.75;1.70;;;;;;;;;;6137348;23;20451;-92
2022/04/10 07:49:06;;;;;;;12.25;2.08;;;;;;;;;;6188016;23;20024;-91
2022/04/10 07:51:32;;;;;;;9.65;2.25;;;;;;;;;;6137235;23;20021;-90
2022/04/10 07:53:58;;;;;;;7.75;2.28;;;;;;;;;;6137268;23;20021;-92
2022/04/10 07:56:30;;;;;;;4.60;2.22;;;;;;;;;;6186917;23;20021;-89
2022/04/10 07:58:57;;;;;;;4.93;2.30;;;;;;;;;;6159617;23;20021;-92
2022/04/10 08:01:23;;;;;;;3.30;1.80;;;;;;;;;;6185728;23;20347;-92
2022/04/10 08:03:51;;;;;;;6.70;2.17;;;;;;;;;;6160077;23;20108;-90
2022/04/10 08:06:18;;;;;;;10.25;2.25;;;;;;;;;;6135430;23;20072;-90
2022/04/10 08:08:44;;;;;;;6.97;2.15;;;;;;;;;;6185978;23;20021;-89
2022/04/10 08:11:10;;;;;;;6.45;2.45;;;;;;;;;;6135696;23;20021;-90
2022/04/10 08:13:37;;;;;;;6.22;2.20;;;;;;;;;;6187433;23;20092;-91
2022/04/10 08:16:03;;;;;;;6.15;1.80;;;;;;;;;;6159378;23;20017;-89
2022/04/10 08:18:29;;;;;;;5.72;1.65;;;;;;;;;;6159759;23;20021;-91
2022/04/10 08:20:55;;;;;;;3.85;1.80;;;;;;;;;;6159686;23;20021;-90
2022/04/10 08:23:21;;;;;;;2.67;1.27;;;;;;;;;;6186597;23;20017;-90
2022/04/10 08:25:47;;;;;;;2.40;1.48;;;;;;;;;;6160493;23;20017;-91
2022/04/10 08:28:13;;;;;;;8.60;2.00;;;;;;;;;;6135126;23;20462;-86
2022/04/10 08:30:40;;;;;;;11.48;2.00;;;;;;;;;;6160020;23;20017;-88
2022/04/10 08:33:08;;;;;;;5.38;1.77;;;;;;;;;;6134829;23;20016;-89
2022/04/10 08:35:34;;;;;;;5.65;1.80;;;;;;;;;;6135687;23;20458;-88
2022/04/10 08:38:00;;;;;;;5.72;2.20;;;;;;;;;;6160543;23;20024;-90
2022/04/10 08:40:28;;;;;;;7.70;2.13;;;;;;;;;;6135216;23;20057;-87
2022/04/10 08:42:54;;;;;;;4.28;1.35;;;;;;;;;;6136938;23;20028;-89
2022/04/10 08:45:25;;;;;;;5.03;2.40;;;;;;;;;;6137422;23;20048;-88
2022/04/10 08:47:51;;;;;;;6.13;2.03;;;;;;;;;;6135719;23;20075;-90
2022/04/10 08:50:18;;;;;;;9.93;2.05;;;;;;;;;;6160204;23;20017;-90
2022/04/10 08:52:45;;;;;;;3.75;2.08;;;;;;;;;;6136824;23;20076;-89
2022/04/10 08:55:11;;;;;;;4.72;1.17;;;;;;;;;;6137140;23;20346;-89
2022/04/10 08:57:38;;;;;;;4.68;1.00;;;;;;;;;;6136100;23;20017;-90
2022/04/10 09:00:04;;;;;;;2.75;1.20;;;;;;;;;;6135907;23;20024;-87
2022/04/10 09:02:30;;;;;;;2.38;1.20;;;;;;;;;;6135120;23;20017;-87
2022/04/10 09:04:59;;;;;;;2.40;1.40;;;;;;;;;;6135574;23;20017;-86
2022/04/10 09:07:25;;;;;;;5.25;1.48;;;;;;;;;;6135313;23;20087;-85
2022/04/10 09:09:56;;;;;;;9.25;1.80;;;;;;;;;;6135141;23;20075;-87
2022/04/10 09:12:23;;;;;;;8.68;1.50;;;;;;;;;;6135188;23;20513;-88
2022/04/10 09:14:50;;;;;;;6.82;1.63;;;;;;;;;;6160313;23;20021;-89
2022/04/10 09:17:17;;;;;;;6.53;2.05;;;;;;;;;;6134926;23;20096;-89
2022/04/10 09:19:48;;;;;;;5.82;3.72;;;;;;;;;;6135125;23;20072;-89
2022/04/10 09:22:37;;;;;;;5.55;3.70;;;;;;;;;;6159614;23;20027;-90
2022/04/10 09:25:11;;;;;;;12.55;2.35;;;;;;;;;;6135549;23;20099;-88
2022/04/10 09:27:42;;;;;;;6.70;2.10;;;;;;;;;;6134858;23;20017;-90
2022/04/10 09:30:12;;;;;;;4.60;1.65;;;;;;;;;;6135010;23;20013;-90
2022/04/10 09:32:39;;;;;;;5.88;2.38;;;;;;;;;;6135061;23;20017;-90
2022/04/10 09:35:06;;;;;;;5.78;2.05;;;;;;;;;;6134948;23;20017;-90
2022/04/10 09:37:33;;;;;;;8.13;2.65;;;;;;;;;;6134807;23;20393;-88
2022/04/10 09:40:23;;;;;;;7.68;2.22;;;8.00;99.90;;;;;;6135226;23;20028;-91
2022/04/10 09:42:50;;;;;;;9.13;1.77;;;;;;;;;;6135037;23;20107;-91
2022/04/10 09:45:33;;;;;;;8.82;1.85;;;;;;;;;;6135285;23;20028;-89
2022/04/10 09:48:17;;;;;;;7.07;1.77;;;;;;;;;;6135164;23;20027;-91
2022/04/10 09:50:43;;;;;;;5.55;2.42;;;;;;;;;;6187530;23;20095;-87
2022/04/10 09:53:11;;;;;;;9.68;1.92;;;;;;;;;;6161006;23;20535;-90
2022/04/10 09:55:42;;;;;;;5.85;1.90;;;;;;;;;;6161300;23;20024;-89
2022/04/10 09:58:10;;;;;;;11.77;2.40;;;;;;;;;;6136451;23;20013;-86
2022/04/10 10:00:37;;;;;;;6.10;2.20;;;;;;;;;;6135682;23;20020;-87
2022/04/10 10:03:05;;;;;;;5.85;1.80;;;;;;;;;;6161475;23;20032;-89
2022/04/10 10:05:31;;;;;;;4.97;1.95;;;;;;;;;;6160314;23;20013;-87
2022/04/10 10:07:58;;;;;;;7.50;2.30;;;;;;;;;;6136059;23;20067;-90
2022/04/10 10:10:25;;;;;;;11.20;3.17;;;;;;;;;;6136111;23;20024;-89
2022/04/10 10:12:52;;;;;;;8.13;2.28;;;;;;;;;;6136290;23;20324;-88
2022/04/10 10:15:18;;;;;;;10.13;2.10;;;;;;;;;;6162501;23;20415;-88
2022/04/10 10:17:44;;;;;;;4.35;2.03;;;;;;;;;;6160779;23;20080;-86
2022/04/10 10:20:11;;;;;;;3.80;1.88;;;;;;;;;;6136203;23;20075;-87
2022/04/10 10:22:37;;;;;;;9.70;2.47;;;;;;;;;;6136671;23;20013;-87
2022/04/10 10:25:09;;;;;;;8.57;1.90;;;;;;;;;;6161862;23;20342;-88
2022/04/10 10:27:50;;;;;;;10.18;1.80;;;;;;;;;;6161884;23;20108;-87
2022/04/10 10:30:28;;;;;;;10.48;1.58;;;;;;;;;;6162285;23;20025;-88
2022/04/10 10:32:56;;;;;;;7.13;1.63;;;;;;;;;;6136160;23;20059;-91
2022/04/10 10:35:35;;;;;;;6.20;2.03;;;;;;;;;;6136796;23;20056;-87
2022/04/10 10:38:02;;;;;;;4.20;1.42;;;;;;;;;;6136645;23;20462;-88
2022/04/10 10:40:28;;;;;;;5.20;1.70;;;;;;;;;;6138487;23;20013;-90
2022/04/10 10:42:58;;;;;;;4.97;1.50;;;;;;;;;;6163492;23;20458;-93
2022/04/10 10:45:38;;;;;;;7.68;1.92;;;;;;;;;;6138156;23;20472;-88
2022/04/10 10:48:26;;;;;;;6.18;2.10;;;;;;;;;;6161678;23;20033;-89
2022/04/10 10:51:09;;;;;;;8.38;2.03;;;;;;;;;;6186637;23;20032;-89
2022/04/10 10:53:52;;;;;;;7.93;1.80;;;;;;;;;;6187366;23;20017;-89
2022/04/10 10:56:32;;;;;;;7.90;1.70;;;;;;;;;;6162131;23;20017;-89
2022/04/10 10:59:17;;;;;;;6.28;2.20;;;;;;;;;;6163669;23;20543;-88
2022/04/10 11:01:51;;;;;;;5.22;1.65;;;;;;;;;;6137565;23;20474;-89
2022/04/10 11:04:19;;;;;;;5.90;1.90;;;;;;;;;;6137479;23;20013;-88
2022/04/10 11:06:47;;;;;;;3.90;1.42;;;;;;;;;;6187900;23;20450;-89
2022/04/10 11:09:30;;;;;;;6.88;1.40;;;;;;;;;;6162714;23;20091;-88
2022/04/10 11:11:59;;;;;;;9.43;2.28;;;;;;;;;;6162514;23;20469;-88
2022/04/10 11:14:41;;;;;;;9.05;1.83;;;;;;;;;;6163648;23;20020;-89
2022/04/10 11:17:15;;;;;;;9.20;2.03;;;;;;;;;;6163395;23;20012;-89
2022/04/10 11:19:42;;;;;;;2.47;1.23;;;;;;;;;;6138755;23;20084;-88
2022/04/10 11:22:13;;;;;;;5.70;2.17;;;;;;;;;;6136763;23;20585;-87
2022/04/10 11:24:39;;;;;;;4.18;1.80;;;;;;;;;;6135765;23;20021;-91
2022/04/10 11:27:05;;;;;;;6.80;1.85;;;;;;;;;;6163790;23;20025;-88
2022/04/10 11:29:33;;;;;;;4.85;2.17;;;;;;;;;;6139839;23;20045;-90
2022/04/10 11:32:04;;;;;;;5.35;1.55;;;;;;;;;;6139853;23;20017;-89
2022/04/10 11:34:31;;;;;;;2.70;1.60;;;;;;;;;;6139919;23;20048;-90
2022/04/10 11:36:59;;;;;;;4.10;1.40;;;;;;;;;;6140139;23;20462;-88
2022/04/10 11:39:25;;;;;;;3.28;1.67;;;;;;;;;;6157225;23;20092;-88
2022/04/10 11:41:53;;;;;;;3.83;1.65;;;;;;;;;;6138992;23;20040;-88
2022/04/10 11:44:19;;;;;;;5.80;1.75;;;;;;;;;;6139366;23;20021;-89
2022/04/10 11:46:46;;;;;;;6.70;2.63;;;;;;;;;;6140559;23;20059;-91
2022/04/10 11:49:13;;;;;;;10.43;2.38;;;;;;;;;;6140380;23;20099;-89
2022/04/10 11:51:59;;;;;;;5.97;1.63;;;;;;;;;;6140359;23;20019;-90
2022/04/10 11:54:26;;;;;;;8.40;1.50;;;;;;;;;;6138513;23;20450;-88
2022/04/10 11:56:53;;;;;;;2.60;1.27;;;;;;;;;;6164620;23;20059;-89
2022/04/10 11:59:20;;;;;;;4.90;1.40;;;;;;;;;;6142071;23;20025;-91
2022/04/10 12:01:46;;;;;;;3.15;1.38;;;;;;;;;;6138492;23;20027;-88
2022/04/10 12:04:12;;;;;;;11.98;1.90;;;;;;;;;;6140176;23;20021;-88
2022/04/10 12:06:38;;;;;;;3.78;1.50;;;;;;;;;;6140348;23;20021;-87
2022/04/10 12:09:04;;;;;;;5.32;1.90;;;;;;;;;;6138165;23;20024;-88
2022/04/10 12:11:37;;;;;;;5.70;1.90;;;;;;;;;;6138612;23;20064;-90
2022/04/10 12:14:16;;;;;;;4.03;1.60;;;;;;;;;;6138339;23;20058;-89
2022/04/10 12:16:43;;;;;;;14.57;2.53;;;;;;;;;;6139251;23;20040;-88
2022/04/10 12:19:09;;;;;;;9.18;1.88;;;;;;;;;;6163373;23;20013;-89
2022/04/10 12:21:35;;;;;;;4.85;1.75;;;;;;;;;;6163272;23;20446;-90
2022/04/10 12:24:03;;;;;;;6.07;1.50;;;;;;;;;;6162028;23;20496;-89
2022/04/10 12:26:29;;;;;;;6.88;1.92;;;;;;;;;;6162799;23;20021;-87
2022/04/10 12:28:56;;;;;;;3.67;1.42;;;;;;;;;;6162237;23;20024;-90
2022/04/10 12:31:22;;;;;;;8.25;1.70;;;;;;;;;;6163443;23;20469;-89
2022/04/10 12:33:48;;;;;;;6.28;1.52;;;;;;;;;;6189095;23;20009;-89
2022/04/10 12:36:18;;;;;;;6.43;2.42;;;;;;;;;;6138286;23;20076;-89
2022/04/10 12:38:44;;;;;;;9.70;1.83;;;;;;;;;;6162229;23;20023;-89
2022/04/10 12:41:13;;;;;;;2.35;1.67;;;;;;;;;;6162082;23;20071;-90
2022/04/10 12:43:39;;;;;;;6.63;1.42;;;;;;;;;;6162733;23;20114;-89
2022/04/10 12:46:15;;;;;;;6.97;1.98;;;;;;;;;;6189429;23;20032;-89
2022/04/10 12:48:44;;;;;;;3.65;1.40;;;;;;;;;;6163867;23;20339;-89
2022/04/10 12:51:11;;;;;;;3.67;1.48;;;;;;;;;;6162763;23;20021;-89
2022/04/10 12:53:40;;;;;;;5.40;1.40;;;;;;;;;;6164371;23;20017;-89
2022/04/10 12:56:26;;;;;;;6.03;1.23;;;;;;;;;;6191456;23;20092;-88
2022/04/10 12:58:53;;;;;;;4.18;1.48;;;;;;;;;;6159112;23;20053;-89
2022/04/10 13:01:25;;;;;;;6.82;2.38;;;;;;;;;;6138787;23;20051;-88
2022/04/10 13:03:52;;;;;;;11.52;1.30;;;;;;;;;;6190085;23;20017;-89
2022/04/10 13:06:19;;;;;;;5.72;1.55;;;;;;;;;;6161927;23;20017;-87
2022/04/10 13:08:47;;;;;;;6.20;1.48;;;;;;;;;;6164615;23;20021;-90
2022/04/10 13:11:13;;;;;;;3.15;1.60;;;;;;;;;;6190347;23;20426;-89
2022/04/10 13:13:55;;;;;;;13.10;2.00;;;;;;;;;;6190102;23;20072;-88
2022/04/10 13:16:28;;;;;;;5.03;1.38;;;;;;;;;;6163129;23;20407;-88
2022/04/10 13:18:54;;;;;;;5.40;2.17;;;;;;;;;;6188723;23;20017;-90
2022/04/10 13:21:22;;;;;;;9.43;1.65;;;;;;;;;;6159220;23;20055;-90
2022/04/10 13:23:48;;;;;;;8.27;2.28;;;;;;;;;;6162975;23;20017;-91
2022/04/10 13:26:28;;;;;;;2.00;1.55;;;;;;;;;;6161659;23;20424;-90
2022/04/10 13:28:54;;;;;;;3.97;1.20;;;;;;;;;;6161457;23;20028;-91
2022/04/10 13:31:21;;;;;;;5.30;1.67;;;;;;;;;;6136831;23;20013;-88
2022/04/10 13:33:47;;;;;;;8.88;1.50;;;;;;;;;;6137019;23;20017;-88
2022/04/10 13:36:13;;;;;;;10.68;1.40;;;;;;;;;;6135728;23;20454;-89
2022/04/10 13:38:39;;;;;;;3.00;1.65;;;;;;;;;;6156462;23;20044;-91
2022/04/10 13:41:06;;;;;;;4.40;1.40;;;;;;;;;;6159357;23;20019;-90
2022/04/10 13:43:32;;;;;;;8.50;2.22;;;;;;;;;;6134888;23;20075;-90
2022/04/10 13:45:59;;;;;;;3.30;1.20;;;;;;;;;;6135733;23;20013;-89
2022/04/10 13:48:26;;;;;;;2.60;1.20;;;;;;;;;;6134168;23;20087;-91
2022/04/10 13:50:52;;;;;;;4.60;1.40;;;;;;;;;;6135811;23;20024;-89
2022/04/10 13:53:18;;;;;;;12.43;1.77;;;;;;;;;;6138073;23;20021;-90
2022/04/10 13:55:44;;;;;;;3.75;1.30;;;;;;;;;;6161117;23;20029;-92
2022/04/10 13:58:11;;;;;;;4.07;0.95;;;;;;;;;;6162036;23;20469;-89
2022/04/10 14:00:39;;;;;;;8.77;1.83;;;;;;;;;;6163021;23;20358;-87
2022/04/10 14:03:06;;;;;;;9.65;1.85;;;;;;;;;;6139156;23;20039;-91
2022/04/10 14:05:33;;;;;;;3.70;1.33;;;;;;;;;;6164168;23;20069;-88
2022/04/10 14:07:59;;;;;;;3.60;1.60;;;;;;;;;;6187166;23;20447;-89
2022/04/10 14:10:25;;;;;;;3.22;1.35;;;;;;;;;;6186496;23;20450;-90
2022/04/10 14:12:51;;;;;;;6.78;1.38;;;;;;;;;;6129214;23;20394;-89
2022/04/10 14:15:17;;;;;;;5.88;1.30;;;;;;;;;;6155515;23;20447;-88
2022/04/10 14:17:43;;;;;;;6.95;1.73;;;;;;;;;;6154047;23;20469;-89
2022/04/10 14:20:09;;;;;;;1.83;1.08;;;;;;;;;;6156129;23;20056;-89
2022/04/10 14:22:35;;;;;;;4.70;1.40;;;;;;;;;;6155261;23;20346;-90
2022/04/10 14:25:01;;;;;;;4.00;1.40;;;;;;;;;;6156272;23;20014;-93
2022/04/10 14:27:28;;;;;;;3.92;1.30;;;;;;;;;;6157608;23;20013;-92
2022/04/10 14:29:54;;;;;;;5.10;1.67;;;;;;;;;;6158696;23;20026;-90
2022/04/10 14:32:21;;;;;;;5.80;1.45;;;;;;;;;;6157974;23;20045;-91
2022/04/10 14:34:47;;;;;;;1.55;0.88;;;;;;;;;;6156259;23;20021;-89
2022/04/10 14:37:13;;;;;;;5.28;2.20;;;;;;;;;;6160674;23;20077;-90
2022/04/10 14:39:39;;;;;;;6.28;1.10;;;;;;;;;;6159465;23;20064;-89
2022/04/10 14:42:06;;;;;;;4.93;1.27;;;;;;;;;;6156467;23;20053;-93
2022/04/10 14:44:32;;;;;;;1.83;1.23;;;;;;;;;;6157804;23;20036;-88
2022/04/10 14:46:58;;;;;;;6.28;1.30;;;;;;;;;;6182930;23;20065;-90
2022/04/10 14:49:24;;;;;;;5.97;1.23;;;;;;;;;;6133650;23;20036;-91
2022/04/10 14:51:50;;;;;;;8.50;1.80;;;;;;;;;;6158637;23;20014;-90